createdAt,value
2023-05-03T00:01:48.077Z,2.90
2023-05-03T00:04:20.241Z,3.00
2023-05-03T00:06:52.572Z,3.10
2023-05-03T00:09:24.371Z,3.10
2023-05-03T00:11:56.065Z,3.20
2023-05-03T00:14:27.806Z,3.30
2023-05-03T00:16:59.970Z,3.40
2023-05-03T00:19:33.553Z,3.70
2023-05-03T00:22:05.230Z,3.70
2023-05-03T00:24:37.529Z,3.80
2023-05-03T00:27:09.606Z,5.00
2023-05-03T00:29:41.357Z,4.80
2023-05-03T00:32:13.171Z,4.50
2023-05-03T00:34:44.986Z,3.20
2023-05-03T00:37:16.857Z,4.00
2023-05-03T00:39:48.689Z,4.60
2023-05-03T00:42:20.913Z,4.20
2023-05-03T00:44:53.980Z,4.20
2023-05-03T00:47:27.261Z,4.50
2023-05-03T00:50:01.379Z,4.50
2023-05-03T00:52:33.579Z,4.20
2023-05-03T00:55:05.879Z,4.30
2023-05-03T00:57:38.631Z,5.60
2023-05-03T01:00:13.477Z,4.80
2023-05-03T01:02:45.594Z,4.00
2023-05-03T01:05:17.990Z,4.30
2023-05-03T01:08:00.297Z,6.90
2023-05-03T01:10:40.864Z,4.90
2023-05-03T01:13:21.878Z,5.20
2023-05-03T01:16:00.923Z,5.00
2023-05-03T01:18:44.304Z,5.60
2023-05-03T01:21:20.290Z,5.80
2023-05-03T01:23:58.178Z,5.10
2023-05-03T01:26:30.434Z,6.20
2023-05-03T01:29:02.194Z,5.70
2023-05-03T01:31:40.140Z,3.60
2023-05-03T01:34:27.079Z,5.00
2023-05-03T01:37:03.180Z,5.90
2023-05-03T01:39:41.533Z,6.60
2023-05-03T01:42:15.707Z,6.10
2023-05-03T01:44:48.505Z,5.90
2023-05-03T01:49:50.760Z,5.60
2023-05-03T01:52:22.549Z,5.90
2023-05-03T01:54:54.234Z,6.40
2023-05-03T01:57:25.930Z,6.70
2023-05-03T01:59:58.000Z,6.30
2023-05-03T02:02:30.232Z,6.40
2023-05-03T02:05:02.304Z,6.90
2023-05-03T02:07:33.994Z,6.50
2023-05-03T02:10:06.694Z,7.20
2023-05-03T02:12:38.348Z,7.30
2023-05-03T02:15:12.600Z,7.00
2023-05-03T02:17:45.499Z,6.90
2023-05-03T02:20:17.416Z,8.00
2023-05-03T02:22:49.124Z,5.50
2023-05-03T02:25:20.791Z,7.60
2023-05-03T02:27:52.631Z,7.50
2023-05-03T02:30:24.402Z,7.40
2023-05-03T02:32:56.242Z,7.70
2023-05-03T02:35:28.611Z,7.30
2023-05-03T02:38:00.629Z,8.00
2023-05-03T02:40:32.516Z,7.70
2023-05-03T02:43:05.508Z,7.60
2023-05-03T02:45:38.876Z,7.50
2023-05-03T02:48:10.953Z,7.50
2023-05-03T02:50:43.120Z,5.30
2023-05-03T02:53:14.999Z,8.20
2023-05-03T02:55:47.462Z,8.50
2023-05-03T02:58:19.129Z,6.10
2023-05-03T03:00:51.362Z,7.80
2023-05-03T03:03:24.159Z,8.30
2023-05-03T03:05:55.960Z,7.50
2023-05-03T03:08:28.150Z,6.50
2023-05-03T03:11:00.222Z,6.00
2023-05-03T03:13:32.452Z,7.90
2023-05-03T03:16:05.032Z,5.20
2023-05-03T03:18:37.027Z,7.70
2023-05-03T03:21:10.512Z,7.30
2023-05-03T03:23:42.462Z,7.00
2023-05-03T03:26:14.631Z,5.60
2023-05-03T03:28:46.861Z,8.10
2023-05-03T03:31:19.286Z,7.30
2023-05-03T03:33:51.970Z,6.70
2023-05-03T03:38:54.433Z,7.60
2023-05-03T03:41:26.433Z,6.80
2023-05-03T03:43:59.933Z,7.00
2023-05-03T03:46:31.680Z,8.10
2023-05-03T03:49:03.558Z,7.80
2023-05-03T03:51:35.552Z,5.30
2023-05-03T03:54:07.694Z,5.20
2023-05-03T03:56:40.070Z,4.20
2023-05-03T03:59:12.249Z,8.00
2023-05-03T04:01:44.816Z,7.30
2023-05-03T04:04:16.989Z,7.50
2023-05-03T04:06:49.294Z,7.60
2023-05-03T04:09:21.678Z,8.40
2023-05-03T04:11:55.540Z,4.50
2023-05-03T04:14:27.318Z,8.80
2023-05-03T04:16:59.059Z,9.30
2023-05-03T04:19:32.192Z,8.00
2023-05-03T04:22:04.322Z,7.80
2023-05-03T04:24:39.602Z,7.20
2023-05-03T04:27:14.595Z,7.90
2023-05-03T04:29:49.041Z,8.30
2023-05-03T04:32:23.614Z,8.50
2023-05-03T04:34:55.902Z,8.10
2023-05-03T04:37:28.344Z,7.40
2023-05-03T04:40:01.278Z,7.90
2023-05-03T04:42:34.408Z,7.00
2023-05-03T04:45:09.499Z,8.40
2023-05-03T04:47:41.973Z,7.80
2023-05-03T04:52:46.881Z,8.20
2023-05-03T04:55:19.477Z,7.40
2023-05-03T04:57:52.184Z,7.70
2023-05-03T05:00:24.803Z,8.20
2023-05-03T05:03:01.786Z,7.30
2023-05-03T05:05:35.599Z,7.20
2023-05-03T05:08:07.780Z,8.10
2023-05-03T05:10:44.598Z,6.70
2023-05-03T05:13:20.250Z,6.30
2023-05-03T05:15:52.180Z,5.90
2023-05-03T05:18:24.136Z,6.70
2023-05-03T05:23:27.800Z,6.20
2023-05-03T05:26:00.668Z,6.40
2023-05-03T05:28:34.181Z,6.50
2023-05-03T05:31:06.069Z,6.70
2023-05-03T05:33:38.110Z,6.90
2023-05-03T05:36:10.609Z,6.50
2023-05-03T05:38:43.315Z,7.40
2023-05-03T05:43:45.944Z,7.20
2023-05-03T05:46:19.843Z,7.20
2023-05-03T05:48:52.382Z,7.30
2023-05-03T05:51:24.683Z,6.60
2023-05-03T05:53:57.021Z,5.20
2023-05-03T05:56:28.950Z,6.80
2023-05-03T05:59:00.906Z,6.70
2023-05-03T06:01:33.542Z,6.50
2023-05-03T06:04:05.714Z,6.90
2023-05-03T06:06:37.597Z,6.00
2023-05-03T06:09:22.958Z,6.30
2023-05-03T06:11:56.842Z,6.00
2023-05-03T06:14:30.868Z,6.60
2023-05-03T06:17:03.992Z,6.30
2023-05-03T06:19:35.830Z,6.40
2023-05-03T06:22:07.927Z,5.80
2023-05-03T06:24:40.337Z,6.90
2023-05-03T06:27:12.098Z,5.70
2023-05-03T06:29:44.867Z,6.20
2023-05-03T06:32:17.688Z,6.90
2023-05-03T06:34:49.548Z,6.60
2023-05-03T06:37:21.379Z,7.00
2023-05-03T06:39:53.187Z,5.50
2023-05-03T06:42:25.182Z,5.80
2023-05-03T06:45:10.352Z,5.60
2023-05-03T06:47:43.467Z,6.30
2023-05-03T06:50:15.677Z,5.60
2023-05-03T06:52:47.434Z,3.50
2023-05-03T06:55:19.400Z,5.40
2023-05-03T06:57:52.407Z,3.60
2023-05-03T07:00:26.140Z,4.70
2023-05-03T07:02:57.906Z,4.30
2023-05-03T07:05:29.810Z,3.10
2023-05-03T07:08:01.604Z,4.90
2023-05-03T07:10:34.451Z,5.00
2023-05-03T07:15:36.453Z,3.70
2023-05-03T07:18:09.149Z,3.80
2023-05-03T07:23:11.530Z,4.40
2023-05-03T07:25:44.316Z,4.50
2023-05-03T07:30:46.935Z,3.90
2023-05-03T07:33:18.858Z,5.40
2023-05-03T07:35:51.434Z,3.70
2023-05-03T07:38:23.187Z,4.90
2023-05-03T07:40:55.037Z,4.10
2023-05-03T07:43:26.813Z,2.50
2023-05-03T07:46:00.272Z,2.90
2023-05-03T07:48:33.434Z,3.40
2023-05-03T07:51:07.516Z,3.20
2023-05-03T07:53:40.335Z,4.30
2023-05-03T07:56:12.458Z,3.70
2023-05-03T07:58:46.727Z,2.60
2023-05-03T08:01:21.128Z,2.80
2023-05-03T08:03:54.650Z,3.30
2023-05-03T08:06:27.894Z,3.10
2023-05-03T08:08:59.658Z,3.70
2023-05-03T08:11:31.761Z,4.20
2023-05-03T08:14:03.550Z,4.00
2023-05-03T08:16:35.460Z,3.60
2023-05-03T08:19:08.075Z,4.20
2023-05-03T08:21:39.860Z,3.30
2023-05-03T08:24:15.487Z,3.20
2023-05-03T08:26:48.444Z,3.30
2023-05-03T08:29:21.027Z,2.60
2023-05-03T08:31:52.817Z,4.00
2023-05-03T08:34:24.556Z,5.10
2023-05-03T08:36:56.834Z,3.60
2023-05-03T08:39:31.497Z,3.10
2023-05-03T08:42:09.239Z,3.20
2023-05-03T08:44:49.455Z,2.40
2023-05-03T08:47:21.902Z,3.20
2023-05-03T08:49:56.574Z,3.70
2023-05-03T08:52:28.518Z,3.00
2023-05-03T08:55:00.687Z,3.70
2023-05-03T08:57:32.892Z,3.10
2023-05-03T09:00:10.525Z,3.40
2023-05-03T09:02:42.942Z,3.60
2023-05-03T09:05:38.734Z,4.00
2023-05-03T09:08:12.535Z,3.20
2023-05-03T09:10:45.222Z,3.10
2023-05-03T09:13:17.049Z,2.70
2023-05-03T09:15:56.127Z,3.00
2023-05-03T09:18:30.606Z,3.10
2023-05-03T09:21:02.564Z,3.20
2023-05-03T09:23:34.653Z,3.20
2023-05-03T09:26:07.407Z,2.90
2023-05-03T09:28:44.605Z,3.30
2023-05-03T09:31:19.096Z,3.10
2023-05-03T09:33:51.786Z,3.40
2023-05-03T09:36:24.099Z,2.90
2023-05-03T09:38:56.525Z,3.10
2023-05-03T09:41:32.646Z,4.40
2023-05-03T09:44:04.935Z,3.60
2023-05-03T09:46:37.788Z,3.10
2023-05-03T09:49:09.688Z,2.80
2023-05-03T09:51:41.880Z,1.80
2023-05-03T09:54:16.636Z,3.20
2023-05-03T09:56:49.386Z,2.70
2023-05-03T10:01:56.878Z,2.70
2023-05-03T10:04:30.397Z,2.90
2023-05-03T10:07:10.050Z,3.50
2023-05-03T10:09:45.845Z,2.80
2023-05-03T10:12:18.767Z,3.20
2023-05-03T10:14:53.537Z,2.70
2023-05-03T10:17:46.126Z,3.30
2023-05-03T10:20:32.590Z,2.60
2023-05-03T10:23:12.178Z,2.90
2023-05-03T10:26:16.776Z,2.70
2023-05-03T10:28:49.544Z,2.70
2023-05-03T10:31:48.840Z,3.20
2023-05-03T10:34:24.821Z,3.80
2023-05-03T10:36:56.884Z,3.20
2023-05-03T10:39:30.142Z,3.90
2023-05-03T10:42:07.781Z,2.90
2023-05-03T10:44:42.239Z,3.70
2023-05-03T10:47:15.998Z,3.00
2023-05-03T10:49:48.307Z,2.90
2023-05-03T10:52:50.612Z,2.70
2023-05-03T10:55:24.849Z,2.70
2023-05-03T10:58:00.970Z,2.60
2023-05-03T11:00:40.480Z,2.60
2023-05-03T11:03:26.360Z,3.00
2023-05-03T11:05:59.118Z,2.70
2023-05-03T11:11:07.485Z,3.70
2023-05-03T11:13:39.922Z,3.00
2023-05-03T11:16:12.102Z,3.10
2023-05-03T11:18:44.079Z,2.50
2023-05-03T11:21:16.242Z,2.50
2023-05-03T11:23:48.039Z,2.90
2023-05-03T11:26:25.914Z,3.10
2023-05-03T11:28:58.025Z,2.70
2023-05-03T11:31:30.073Z,3.10
2023-05-03T11:34:02.352Z,3.90
2023-05-03T11:36:34.266Z,2.80
2023-05-03T11:39:06.757Z,2.40
2023-05-03T11:41:38.541Z,2.60
2023-05-03T11:44:16.932Z,2.80
2023-05-03T11:46:50.480Z,3.30
2023-05-03T11:49:22.208Z,3.00
2023-05-03T11:51:55.293Z,2.80
2023-05-03T11:54:28.316Z,4.10
2023-05-03T11:57:02.017Z,4.50
2023-05-03T11:59:41.640Z,2.60
2023-05-03T12:02:15.722Z,2.80
2023-05-03T12:04:48.440Z,2.70
2023-05-03T12:07:22.753Z,2.70
2023-05-03T12:10:07.001Z,2.80
2023-05-03T12:12:56.803Z,3.10
2023-05-03T12:15:34.330Z,2.40
2023-05-03T12:18:09.926Z,3.30
2023-05-03T12:21:28.948Z,2.60
2023-05-03T12:23:34.691Z,3.10
2023-05-03T12:26:09.531Z,3.10
2023-05-03T12:28:44.329Z,2.50
2023-05-03T12:31:18.302Z,2.90
2023-05-03T12:34:09.161Z,3.20
2023-05-03T12:36:43.852Z,3.50
2023-05-03T12:39:16.473Z,2.60
2023-05-03T12:44:24.319Z,2.70
2023-05-03T12:46:58.248Z,2.70
2023-05-03T12:49:35.193Z,3.00
2023-05-03T12:54:48.835Z,2.60
2023-05-03T12:57:23.698Z,2.10
2023-05-03T13:00:02.259Z,2.60
2023-05-03T13:05:22.919Z,2.40
2023-05-03T13:10:41.189Z,2.20
2023-05-03T13:13:13.249Z,2.90
2023-05-03T13:15:45.106Z,2.60
2023-05-03T13:18:19.646Z,2.50
2023-05-03T13:20:51.746Z,2.00
2023-05-03T13:23:23.487Z,2.10
2023-05-03T13:25:57.218Z,2.60
2023-05-03T13:28:29.075Z,2.30
2023-05-03T13:31:00.773Z,2.70
2023-05-03T13:33:32.644Z,2.40
2023-05-03T13:36:04.624Z,3.00
2023-05-03T13:38:36.531Z,2.60
2023-05-03T13:41:10.114Z,2.60
2023-05-03T13:43:42.532Z,2.80
2023-05-03T13:46:15.118Z,2.60
2023-05-03T13:51:17.177Z,2.90
2023-05-03T13:53:48.905Z,3.60
2023-05-03T13:56:21.672Z,2.80
2023-05-03T14:01:24.730Z,2.30
2023-05-03T14:03:57.019Z,2.50
2023-05-03T14:06:31.821Z,2.40
2023-05-03T14:09:05.108Z,2.90
2023-05-03T14:11:37.896Z,2.60
2023-05-03T14:14:09.817Z,2.90
2023-05-03T14:16:42.403Z,2.60
2023-05-03T14:21:49.366Z,2.40
2023-05-03T14:24:21.475Z,2.90
2023-05-03T14:26:53.198Z,2.50
2023-05-03T14:29:24.969Z,3.00
2023-05-03T14:31:57.831Z,2.50
2023-05-03T14:34:29.955Z,2.50
2023-05-03T14:37:01.746Z,3.30
2023-05-03T14:39:34.048Z,3.90
2023-05-03T14:42:05.993Z,3.10
2023-05-03T14:44:38.023Z,2.40
2023-05-03T14:47:09.776Z,2.70
2023-05-03T14:49:41.948Z,2.50
2023-05-03T14:52:13.668Z,2.90
2023-05-03T14:54:45.356Z,2.40
2023-05-03T14:57:17.169Z,2.70
2023-05-03T14:59:50.017Z,2.80
2023-05-03T15:02:22.656Z,2.80
2023-05-03T15:04:54.650Z,2.30
2023-05-03T15:07:27.079Z,2.30
2023-05-03T15:10:01.247Z,2.30
2023-05-03T15:12:33.378Z,2.70
2023-05-03T15:15:05.457Z,2.30
2023-05-03T15:17:37.551Z,2.90
2023-05-03T15:20:13.826Z,2.80
2023-05-03T15:22:45.611Z,3.50
2023-05-03T15:25:17.336Z,2.40
2023-05-03T15:27:49.112Z,2.10
2023-05-03T15:30:21.125Z,2.20
2023-05-03T15:32:53.354Z,3.80
2023-05-03T15:35:25.441Z,2.20
2023-05-03T15:37:57.874Z,3.80
2023-05-03T15:40:29.990Z,2.30
2023-05-03T15:43:01.754Z,2.30
2023-05-03T15:45:33.590Z,2.20
2023-05-03T15:48:05.778Z,2.30
2023-05-03T15:50:37.715Z,2.90
2023-05-03T15:53:09.606Z,2.20
2023-05-03T15:55:42.578Z,2.50
2023-05-03T15:58:14.388Z,2.30
2023-05-03T16:00:46.414Z,2.50
2023-05-03T16:03:18.870Z,2.40
2023-05-03T16:05:50.837Z,2.80
2023-05-03T16:08:22.722Z,2.30
2023-05-03T16:10:54.874Z,2.50
2023-05-03T16:13:27.443Z,2.50
2023-05-03T16:18:29.522Z,2.80
2023-05-03T16:21:01.344Z,2.50
2023-05-03T16:23:33.012Z,3.00
2023-05-03T16:26:14.479Z,2.70
2023-05-03T16:28:48.171Z,2.80
2023-05-03T16:31:21.375Z,3.30
2023-05-03T16:33:53.174Z,2.50
2023-05-03T16:36:25.174Z,2.50
2023-05-03T16:38:56.946Z,2.30
2023-05-03T16:41:28.763Z,2.30
2023-05-03T16:44:00.893Z,2.20
2023-05-03T16:46:34.796Z,2.40
2023-05-03T16:49:07.316Z,2.50
2023-05-03T16:51:40.622Z,3.00
2023-05-03T16:54:16.270Z,2.50
2023-05-03T16:56:48.052Z,2.40
2023-05-03T16:59:19.806Z,3.00
2023-05-03T17:01:51.709Z,2.60
2023-05-03T17:04:23.566Z,3.30
2023-05-03T17:06:56.123Z,2.20
2023-05-03T17:09:27.999Z,2.20
2023-05-03T17:12:03.507Z,2.60
2023-05-03T17:14:35.493Z,4.80
2023-05-03T17:17:07.400Z,4.20
2023-05-03T17:19:39.299Z,2.20
2023-05-03T17:22:11.349Z,2.50
2023-05-03T17:24:43.113Z,2.40
2023-05-03T17:27:14.790Z,2.20
2023-05-03T17:29:46.755Z,2.40
2023-05-03T17:32:18.483Z,4.10
2023-05-03T17:34:51.014Z,2.30
2023-05-03T17:37:23.924Z,2.30
2023-05-03T17:42:26.408Z,2.50
2023-05-03T17:44:59.042Z,2.70
2023-05-03T17:50:02.527Z,2.80
2023-05-03T17:52:35.224Z,3.10
2023-05-03T17:55:08.188Z,2.60
2023-05-03T17:57:40.114Z,3.30
2023-05-03T18:00:15.388Z,2.80
2023-05-03T18:02:47.355Z,2.40
2023-05-03T18:05:19.483Z,3.30
2023-05-03T18:07:51.605Z,3.40
2023-05-03T18:10:25.326Z,3.50
2023-05-03T18:12:57.136Z,3.50
2023-05-03T18:15:28.962Z,4.30
2023-05-03T18:18:00.858Z,3.00
2023-05-03T18:20:33.170Z,3.40
2023-05-03T18:23:06.582Z,3.20
2023-05-03T18:25:38.356Z,3.70
2023-05-03T18:28:10.106Z,2.70
2023-05-03T18:30:42.704Z,4.30
2023-05-03T18:33:14.589Z,4.10
2023-05-03T18:35:49.967Z,3.60
2023-05-03T18:38:22.408Z,3.70
2023-05-03T18:40:55.332Z,3.40
2023-05-03T18:43:27.391Z,3.90
2023-05-03T18:45:59.282Z,3.60
2023-05-03T18:48:31.024Z,4.00
2023-05-03T18:51:04.915Z,4.30
2023-05-03T18:53:37.804Z,4.10
2023-05-03T18:56:10.128Z,3.70
2023-05-03T19:01:12.754Z,3.90
2023-05-03T19:03:44.900Z,3.80
2023-05-03T19:06:17.048Z,7.50
2023-05-03T19:08:49.976Z,4.80
2023-05-03T19:11:22.115Z,4.70
2023-05-03T19:13:54.007Z,5.30
2023-05-03T19:16:25.775Z,5.60
2023-05-03T19:18:58.709Z,5.40
2023-05-03T19:21:31.942Z,6.10
2023-05-03T19:24:03.976Z,10.00
2023-05-03T19:26:36.316Z,15.20
2023-05-03T19:29:08.905Z,14.20
2023-05-03T19:31:41.188Z,13.00
2023-05-03T19:34:13.270Z,11.30
2023-05-03T19:36:45.250Z,9.30
2023-05-03T19:39:17.191Z,9.30
2023-05-03T19:41:50.362Z,9.00
2023-05-03T19:44:22.538Z,8.30
2023-05-03T19:46:55.340Z,10.70
2023-05-03T19:49:27.309Z,10.10
2023-05-03T19:51:59.198Z,8.80
2023-05-03T19:54:32.966Z,9.70
2023-05-03T19:57:09.448Z,9.30
2023-05-03T19:59:41.560Z,9.00
2023-05-03T20:02:13.486Z,8.60
2023-05-03T20:04:45.753Z,8.70
2023-05-03T20:07:17.957Z,9.30
2023-05-03T20:09:50.556Z,9.20
2023-05-03T20:12:22.515Z,8.90
2023-05-03T20:14:56.233Z,8.70
2023-05-03T20:17:27.994Z,8.10
2023-05-03T20:20:07.254Z,7.90
2023-05-03T20:22:39.465Z,8.50
2023-05-03T20:25:11.888Z,8.60
2023-05-03T20:27:43.702Z,8.70
2023-05-03T20:30:16.231Z,8.20
2023-05-03T20:32:48.365Z,10.10
2023-05-03T20:35:20.359Z,10.60
2023-05-03T20:37:52.112Z,10.30
2023-05-03T20:40:23.820Z,8.20
2023-05-03T20:42:55.983Z,9.70
2023-05-03T20:45:27.737Z,10.50
2023-05-03T20:47:59.519Z,8.70
2023-05-03T20:50:31.350Z,9.20
2023-05-03T20:53:03.336Z,6.80
2023-05-03T20:55:35.086Z,9.00
2023-05-03T20:58:07.020Z,9.40
2023-05-03T21:00:38.953Z,9.60
2023-05-03T21:03:10.712Z,10.30
2023-05-03T21:05:42.709Z,9.80
2023-05-03T21:08:14.884Z,7.10
2023-05-03T21:10:46.678Z,10.40
2023-05-03T21:13:18.598Z,9.30
2023-05-03T21:15:51.670Z,10.20
2023-05-03T21:18:24.779Z,9.90
2023-05-03T21:20:56.844Z,10.00
2023-05-03T21:23:29.068Z,10.20
2023-05-03T21:26:01.643Z,9.70
2023-05-03T21:28:33.537Z,11.30
2023-05-03T21:31:05.752Z,13.00
2023-05-03T21:33:37.522Z,12.10
2023-05-03T21:36:10.274Z,12.80
2023-05-03T21:41:12.593Z,14.10
2023-05-03T21:43:44.334Z,14.50
2023-05-03T21:46:16.084Z,14.10
2023-05-03T21:48:47.724Z,15.90
2023-05-03T21:51:23.464Z,14.00
2023-05-03T21:53:55.218Z,15.80
2023-05-03T21:56:27.621Z,13.50
2023-05-03T21:58:59.648Z,14.10
2023-05-03T22:01:31.624Z,13.60
2023-05-03T22:04:03.725Z,14.90
2023-05-03T22:06:35.583Z,14.40
2023-05-03T22:09:09.586Z,15.20
2023-05-03T22:11:42.140Z,14.70
2023-05-03T22:14:13.802Z,15.20
2023-05-03T22:16:45.568Z,15.00
2023-05-03T22:19:17.290Z,16.00
2023-05-03T22:21:49.019Z,15.50
2023-05-03T22:24:20.861Z,14.90
2023-05-03T22:26:52.529Z,14.70
2023-05-03T22:29:24.227Z,11.20
2023-05-03T22:31:56.452Z,14.60
2023-05-03T22:34:28.249Z,16.00
2023-05-03T22:36:59.886Z,15.90
2023-05-03T22:39:32.233Z,15.20
2023-05-03T22:42:04.660Z,15.20
2023-05-03T22:44:37.660Z,16.30
2023-05-03T22:47:09.430Z,15.20
2023-05-03T22:49:41.101Z,14.90
2023-05-03T22:52:12.790Z,14.60
2023-05-03T22:54:44.539Z,15.40
2023-05-03T22:57:16.338Z,15.50
2023-05-03T22:59:48.832Z,15.00
2023-05-03T23:02:20.527Z,15.70
2023-05-03T23:04:52.365Z,15.60
2023-05-03T23:07:24.021Z,14.70
2023-05-03T23:10:03.896Z,15.40
2023-05-03T23:12:36.244Z,14.50
2023-05-03T23:15:10.301Z,10.00
2023-05-03T23:17:42.063Z,15.10
2023-05-03T23:20:15.603Z,15.00
2023-05-03T23:22:47.331Z,13.70
2023-05-03T23:25:19.837Z,14.70
2023-05-03T23:27:51.607Z,14.80
2023-05-03T23:30:24.511Z,14.30
2023-05-03T23:32:57.223Z,15.70
2023-05-03T23:35:29.388Z,14.80
2023-05-03T23:38:01.542Z,14.90
2023-05-03T23:40:33.320Z,14.20
2023-05-03T23:43:05.179Z,14.10
2023-05-03T23:45:36.937Z,14.10
2023-05-03T23:48:09.667Z,13.30
2023-05-03T23:50:41.902Z,15.30
2023-05-03T23:53:13.572Z,14.90
2023-05-03T23:55:46.073Z,16.40
2023-05-03T23:58:17.773Z,15.10
